createdAt,value
2022-12-08T00:00:10.037Z,20.40
2022-12-08T00:01:10.037Z,22.10
2022-12-08T00:02:10.167Z,21.60
2022-12-08T00:03:10.135Z,19.20
2022-12-08T00:04:10.028Z,21.40
2022-12-08T00:05:09.987Z,20.30
2022-12-08T00:06:09.983Z,21.80
2022-12-08T00:07:09.965Z,22.20
2022-12-08T00:08:10.032Z,23.90
2022-12-08T00:09:09.986Z,22.60
2022-12-08T00:10:39.608Z,21.30
2022-12-08T00:11:10.925Z,22.60
2022-12-08T00:12:09.922Z,22.90
2022-12-08T00:13:09.902Z,23.10
2022-12-08T00:14:11.114Z,19.90
2022-12-08T00:15:09.874Z,22.30
2022-12-08T00:16:09.939Z,24.80
2022-12-08T00:17:09.874Z,25.00
2022-12-08T00:18:09.853Z,24.00
2022-12-08T00:19:09.885Z,21.30
2022-12-08T00:20:09.831Z,23.00
2022-12-08T00:21:09.822Z,23.30
2022-12-08T00:22:09.803Z,21.40
2022-12-08T00:23:09.847Z,22.80
2022-12-08T00:24:09.822Z,22.50
2022-12-08T00:25:09.787Z,25.80
2022-12-08T00:26:09.763Z,30.50
2022-12-08T00:27:09.766Z,22.10
2022-12-08T00:28:09.742Z,24.60
2022-12-08T00:29:14.482Z,25.90
2022-12-08T00:30:10.782Z,28.00
2022-12-08T00:31:09.723Z,24.70
2022-12-08T00:32:09.744Z,24.80
2022-12-08T00:33:09.721Z,23.50
2022-12-08T00:34:09.712Z,24.50
2022-12-08T00:35:09.685Z,27.10
2022-12-08T00:36:09.663Z,23.40
2022-12-08T00:37:09.715Z,30.20
2022-12-08T00:38:09.671Z,26.40
2022-12-08T00:39:09.641Z,27.70
2022-12-08T00:40:09.612Z,30.80
2022-12-08T00:41:09.611Z,29.00
2022-12-08T00:42:09.607Z,30.10
2022-12-08T00:43:09.592Z,33.40
2022-12-08T00:44:11.291Z,29.00
2022-12-08T00:45:09.562Z,28.80
2022-12-08T00:46:09.740Z,30.70
2022-12-08T00:47:09.552Z,29.90
2022-12-08T00:48:09.533Z,31.40
2022-12-08T00:49:09.531Z,33.50
2022-12-08T00:50:09.547Z,35.20
2022-12-08T00:51:09.500Z,31.30
2022-12-08T00:52:09.539Z,31.30
2022-12-08T00:53:09.530Z,32.10
2022-12-08T00:54:09.479Z,31.80
2022-12-08T00:55:09.477Z,33.10
2022-12-08T00:56:09.450Z,35.80
2022-12-08T00:57:09.450Z,35.10
2022-12-08T00:58:09.449Z,37.20
2022-12-08T00:59:09.431Z,35.50
2022-12-08T01:00:09.428Z,35.00
2022-12-08T01:01:09.470Z,38.40
2022-12-08T01:02:09.381Z,34.50
2022-12-08T01:03:09.485Z,38.50
2022-12-08T01:04:09.359Z,38.30
2022-12-08T01:05:09.419Z,39.50
2022-12-08T01:06:09.342Z,41.50
2022-12-08T01:07:09.329Z,37.60
2022-12-08T01:08:09.447Z,37.60
2022-12-08T01:09:09.352Z,39.40
2022-12-08T01:10:09.299Z,43.60
2022-12-08T01:11:09.287Z,40.90
2022-12-08T01:12:09.328Z,41.30
2022-12-08T01:13:09.278Z,41.50
2022-12-08T01:14:09.257Z,42.90
2022-12-08T01:15:09.506Z,39.90
2022-12-08T01:16:09.299Z,40.30
2022-12-08T01:17:09.340Z,42.10
2022-12-08T01:18:09.217Z,41.60
2022-12-08T01:19:09.709Z,41.30
2022-12-08T01:20:09.197Z,43.80
2022-12-08T01:21:09.247Z,42.70
2022-12-08T01:22:09.177Z,43.50
2022-12-08T01:23:09.167Z,42.40
2022-12-08T01:24:09.176Z,43.90
2022-12-08T01:25:16.162Z,41.70
2022-12-08T01:26:09.129Z,42.70
2022-12-08T01:27:09.136Z,39.40
2022-12-08T01:28:09.102Z,43.70
2022-12-08T01:29:09.677Z,42.40
2022-12-08T01:30:09.090Z,40.90
2022-12-08T01:31:09.135Z,41.20
2022-12-08T01:32:09.102Z,40.30
2022-12-08T01:33:09.063Z,41.40
2022-12-08T01:34:09.054Z,39.80
2022-12-08T01:35:09.041Z,39.40
2022-12-08T01:36:09.023Z,43.20
2022-12-08T01:37:09.161Z,39.20
2022-12-08T01:38:09.008Z,39.70
2022-12-08T01:39:09.018Z,39.40
2022-12-08T01:40:08.981Z,40.80
2022-12-08T01:41:08.972Z,38.20
2022-12-08T01:42:08.971Z,40.20
2022-12-08T01:43:09.010Z,38.80
2022-12-08T01:44:08.972Z,36.20
2022-12-08T01:45:08.950Z,37.50
2022-12-08T01:46:09.024Z,36.70
2022-12-08T01:47:08.942Z,37.70
2022-12-08T01:48:09.040Z,40.00
2022-12-08T01:49:08.907Z,38.60
2022-12-08T01:50:08.930Z,39.90
2022-12-08T01:51:08.887Z,37.20
2022-12-08T01:52:08.898Z,41.10
2022-12-08T01:53:08.851Z,39.10
2022-12-08T01:54:08.829Z,36.90
2022-12-08T01:55:08.849Z,38.90
2022-12-08T01:56:08.867Z,39.10
2022-12-08T01:57:08.807Z,38.70
2022-12-08T01:58:08.789Z,38.70
2022-12-08T01:59:08.779Z,40.20
2022-12-08T02:00:08.802Z,38.00
2022-12-08T02:01:08.866Z,37.90
2022-12-08T02:02:08.795Z,39.80
2022-12-08T02:03:08.748Z,39.50
2022-12-08T02:04:08.729Z,39.60
2022-12-08T02:05:08.718Z,40.60
2022-12-08T02:06:08.758Z,37.30
2022-12-08T02:07:08.701Z,38.30
2022-12-08T02:08:08.732Z,39.70
2022-12-08T02:09:08.678Z,39.30
2022-12-08T02:10:08.708Z,38.70
2022-12-08T02:11:08.704Z,41.80
2022-12-08T02:12:08.654Z,38.50
2022-12-08T02:13:08.637Z,39.90
2022-12-08T02:14:08.678Z,40.40
2022-12-08T02:15:08.608Z,42.30
2022-12-08T02:16:08.678Z,41.10
2022-12-08T02:17:08.626Z,42.90
2022-12-08T02:18:08.596Z,47.50
2022-12-08T02:19:30.377Z,42.70
2022-12-08T02:20:09.559Z,42.00
2022-12-08T02:21:08.546Z,41.60
2022-12-08T02:22:08.598Z,45.20
2022-12-08T02:23:08.527Z,45.60
2022-12-08T02:24:08.525Z,45.70
2022-12-08T02:25:08.506Z,45.40
2022-12-08T02:26:08.504Z,43.90
2022-12-08T02:27:08.494Z,44.40
2022-12-08T02:28:08.527Z,48.10
2022-12-08T02:29:08.465Z,44.20
2022-12-08T02:30:08.465Z,52.20
2022-12-08T02:31:08.575Z,46.40
2022-12-08T02:32:08.443Z,47.60
2022-12-08T02:33:08.474Z,46.50
2022-12-08T02:34:08.416Z,46.30
2022-12-08T02:35:08.504Z,46.80
2022-12-08T02:36:08.443Z,46.20
2022-12-08T02:37:08.426Z,47.70
2022-12-08T02:38:08.374Z,49.10
2022-12-08T02:39:08.354Z,47.40
2022-12-08T02:40:08.610Z,52.60
2022-12-08T02:41:08.344Z,48.10
2022-12-08T02:42:08.382Z,52.00
2022-12-08T02:43:08.331Z,45.80
2022-12-08T02:44:08.314Z,48.00
2022-12-08T02:45:08.293Z,49.80
2022-12-08T02:46:08.346Z,46.50
2022-12-08T02:47:08.273Z,50.70
2022-12-08T02:48:08.316Z,55.00
2022-12-08T02:49:08.251Z,52.90
2022-12-08T02:50:08.246Z,54.90
2022-12-08T02:51:08.231Z,53.00
2022-12-08T02:52:08.292Z,55.10
2022-12-08T02:53:39.358Z,53.40
2022-12-08T02:54:39.329Z,54.50
2022-12-08T02:55:39.329Z,52.40
2022-12-08T02:56:39.317Z,55.60
2022-12-08T02:57:39.376Z,56.50
2022-12-08T02:58:39.308Z,51.70
2022-12-08T02:59:39.279Z,55.10
2022-12-08T03:00:39.269Z,55.90
2022-12-08T03:01:39.332Z,61.10
2022-12-08T03:02:39.329Z,59.50
2022-12-08T03:03:39.308Z,56.30
2022-12-08T03:04:39.228Z,60.70
2022-12-08T03:05:39.257Z,59.60
2022-12-08T03:06:39.209Z,58.80
2022-12-08T03:07:39.245Z,60.40
2022-12-08T03:08:39.217Z,60.90
2022-12-08T03:09:39.177Z,59.60
2022-12-08T03:10:39.164Z,60.00
2022-12-08T03:11:39.157Z,59.60
2022-12-08T03:12:39.146Z,60.20
2022-12-08T03:13:39.137Z,64.10
2022-12-08T03:14:39.336Z,59.60
2022-12-08T03:15:39.195Z,60.50
2022-12-08T03:16:39.097Z,60.00
2022-12-08T03:17:39.095Z,62.90
2022-12-08T03:18:39.078Z,58.60
2022-12-08T03:19:39.095Z,63.70
2022-12-08T03:20:39.101Z,57.60
2022-12-08T03:21:39.045Z,59.00
2022-12-08T03:22:39.038Z,63.40
2022-12-08T03:23:39.033Z,65.70
2022-12-08T03:24:39.020Z,65.40
2022-12-08T03:25:39.035Z,66.60
2022-12-08T03:26:39.035Z,61.70
2022-12-08T03:27:38.985Z,63.80
2022-12-08T03:28:38.986Z,64.60
2022-12-08T03:29:39.104Z,65.10
2022-12-08T03:30:39.055Z,64.30
2022-12-08T03:31:39.007Z,68.60
2022-12-08T03:32:38.983Z,69.00
2022-12-08T03:33:38.924Z,69.90
2022-12-08T03:34:38.914Z,67.20
2022-12-08T03:35:38.922Z,67.20
2022-12-08T03:36:38.936Z,63.90
2022-12-08T03:37:38.942Z,59.50
2022-12-08T03:38:38.874Z,66.30
2022-12-08T03:39:38.872Z,70.40
2022-12-08T03:40:38.884Z,60.80
2022-12-08T03:41:38.873Z,68.50
2022-12-08T03:42:38.832Z,66.60
2022-12-08T03:43:38.823Z,61.30
2022-12-08T03:44:38.875Z,68.40
2022-12-08T03:45:39.172Z,72.10
2022-12-08T03:46:38.793Z,68.20
2022-12-08T03:47:38.843Z,68.60
2022-12-08T03:48:38.792Z,67.40
2022-12-08T03:49:38.753Z,67.00
2022-12-08T03:50:38.741Z,73.70
2022-12-08T03:51:38.772Z,69.80
2022-12-08T03:52:38.762Z,66.80
2022-12-08T03:53:38.721Z,69.10
2022-12-08T03:54:38.701Z,68.40
2022-12-08T03:55:38.731Z,74.80
2022-12-08T03:56:38.680Z,69.50
2022-12-08T03:57:38.680Z,71.90
2022-12-08T03:58:38.661Z,73.70
2022-12-08T03:59:38.703Z,66.80
2022-12-08T04:00:38.641Z,74.80
2022-12-08T04:01:38.754Z,70.30
2022-12-08T04:02:38.659Z,77.30
2022-12-08T04:03:38.651Z,72.80
2022-12-08T04:04:38.601Z,71.70
2022-12-08T04:05:38.591Z,68.10
2022-12-08T04:06:38.583Z,70.30
2022-12-08T04:07:38.646Z,69.90
2022-12-08T04:08:38.552Z,71.10
2022-12-08T04:09:38.642Z,71.20
2022-12-08T04:10:38.539Z,71.20
2022-12-08T04:11:38.624Z,70.60
2022-12-08T04:12:38.541Z,69.50
2022-12-08T04:13:38.539Z,71.80
2022-12-08T04:14:38.496Z,70.70
2022-12-08T04:15:38.527Z,69.50
2022-12-08T04:16:38.542Z,69.40
2022-12-08T04:17:38.459Z,66.90
2022-12-08T04:18:38.489Z,70.70
2022-12-08T04:19:38.449Z,68.90
2022-12-08T04:20:38.469Z,66.70
2022-12-08T04:21:38.429Z,70.60
2022-12-08T04:22:38.439Z,73.90
2022-12-08T04:23:38.399Z,69.50
2022-12-08T04:24:38.389Z,73.70
2022-12-08T04:25:38.386Z,70.20
2022-12-08T04:26:38.370Z,70.90
2022-12-08T04:27:38.379Z,66.00
2022-12-08T04:28:38.460Z,72.40
2022-12-08T04:29:38.338Z,70.60
2022-12-08T04:30:38.326Z,68.10
2022-12-08T04:31:42.104Z,69.50
2022-12-08T04:32:41.733Z,69.70
2022-12-08T04:33:39.366Z,74.50
2022-12-08T04:34:38.297Z,71.60
2022-12-08T04:35:38.277Z,69.80
2022-12-08T04:36:38.256Z,69.60
2022-12-08T04:37:39.796Z,71.30
2022-12-08T04:38:38.240Z,72.70
2022-12-08T04:39:38.247Z,72.20
2022-12-08T04:40:38.266Z,68.90
2022-12-08T04:41:38.207Z,70.90
2022-12-08T04:42:38.206Z,69.30
2022-12-08T04:43:38.196Z,65.30
2022-12-08T04:44:38.196Z,66.40
2022-12-08T04:45:38.165Z,68.70
2022-12-08T04:46:43.158Z,63.70
2022-12-08T04:47:39.147Z,66.00
2022-12-08T04:48:38.133Z,69.90
2022-12-08T04:49:38.185Z,68.50
2022-12-08T04:50:38.113Z,64.00
2022-12-08T04:51:38.155Z,72.60
2022-12-08T04:52:38.094Z,72.10
2022-12-08T04:53:40.900Z,69.20
2022-12-08T04:54:39.082Z,72.90
2022-12-08T04:55:38.065Z,69.10
2022-12-08T04:56:38.084Z,70.00
2022-12-08T04:57:38.064Z,70.60
2022-12-08T04:58:38.023Z,65.30
2022-12-08T04:59:38.024Z,72.60
2022-12-08T05:00:38.043Z,72.90
2022-12-08T05:01:38.126Z,68.40
2022-12-08T05:02:38.055Z,73.20
2022-12-08T05:03:38.088Z,64.20
2022-12-08T05:04:37.994Z,75.60
2022-12-08T05:05:37.963Z,69.20
2022-12-08T05:06:37.943Z,67.20
2022-12-08T05:07:38.002Z,73.20
2022-12-08T05:08:37.923Z,73.00
2022-12-08T05:09:37.912Z,70.60
2022-12-08T05:10:37.893Z,74.30
2022-12-08T05:11:37.893Z,72.60
2022-12-08T05:12:37.903Z,71.70
2022-12-08T05:13:37.921Z,70.70
2022-12-08T05:14:37.902Z,64.80
2022-12-08T05:15:37.852Z,69.20
2022-12-08T05:16:37.909Z,73.30
2022-12-08T05:17:37.832Z,73.70
2022-12-08T05:18:37.834Z,70.40
2022-12-08T05:19:37.810Z,69.60
2022-12-08T05:20:37.820Z,70.80
2022-12-08T05:21:37.791Z,68.00
2022-12-08T05:22:37.830Z,72.40
2022-12-08T05:23:37.770Z,69.60
2022-12-08T05:24:41.324Z,68.10
2022-12-08T05:25:38.752Z,68.80
2022-12-08T05:26:37.869Z,62.60
2022-12-08T05:27:37.721Z,67.10
2022-12-08T05:28:42.661Z,64.80
2022-12-08T05:29:38.702Z,65.40
2022-12-08T05:30:37.689Z,65.00
2022-12-08T05:31:37.755Z,65.80
2022-12-08T05:32:37.717Z,63.60
2022-12-08T05:33:37.659Z,62.30
2022-12-08T05:34:37.821Z,65.80
2022-12-08T05:35:37.689Z,67.20
2022-12-08T05:36:37.700Z,65.90
2022-12-08T05:37:37.618Z,63.30
2022-12-08T05:38:37.659Z,61.50
2022-12-08T05:39:37.628Z,63.10
2022-12-08T05:40:37.608Z,61.20
2022-12-08T05:41:37.615Z,56.80
2022-12-08T05:42:37.574Z,54.50
2022-12-08T05:43:37.556Z,57.90
2022-12-08T05:44:37.537Z,50.70
2022-12-08T05:45:37.597Z,51.70
2022-12-08T05:46:37.541Z,50.90
2022-12-08T05:47:37.549Z,41.90
2022-12-08T05:48:37.497Z,41.60
2022-12-08T05:49:37.517Z,40.50
2022-12-08T05:50:37.476Z,47.10
2022-12-08T05:51:37.469Z,49.10
2022-12-08T05:52:37.456Z,46.50
2022-12-08T05:53:37.505Z,52.90
2022-12-08T05:54:37.437Z,48.00
2022-12-08T05:55:37.437Z,48.20
2022-12-08T05:56:37.506Z,48.60
2022-12-08T05:57:37.408Z,45.60
2022-12-08T05:58:37.410Z,50.80
2022-12-08T05:59:37.436Z,43.70
2022-12-08T06:00:37.366Z,46.60
2022-12-08T06:01:37.426Z,47.40
2022-12-08T06:02:37.521Z,50.70
2022-12-08T06:03:37.418Z,48.30
2022-12-08T06:04:37.420Z,40.80
2022-12-08T06:05:37.383Z,47.60
2022-12-08T06:06:37.315Z,45.20
2022-12-08T06:07:37.352Z,44.30
2022-12-08T06:08:37.325Z,43.40
2022-12-08T06:09:37.285Z,42.50
2022-12-08T06:10:37.276Z,42.30
2022-12-08T06:11:37.264Z,36.70
2022-12-08T06:12:37.255Z,36.60
2022-12-08T06:13:37.274Z,36.20
2022-12-08T06:14:37.235Z,36.70
2022-12-08T06:15:37.215Z,38.30
2022-12-08T06:16:37.243Z,38.60
2022-12-08T06:17:37.194Z,35.10
2022-12-08T06:18:37.184Z,38.30
2022-12-08T06:19:37.285Z,35.00
2022-12-08T06:20:37.163Z,36.20
2022-12-08T06:21:37.189Z,38.60
2022-12-08T06:22:37.151Z,36.50
2022-12-08T06:23:37.211Z,37.10
2022-12-08T06:24:37.134Z,35.20
2022-12-08T06:25:37.112Z,35.30
2022-12-08T06:26:37.110Z,36.70
2022-12-08T06:27:37.092Z,37.40
2022-12-08T06:28:37.083Z,36.80
2022-12-08T06:29:37.113Z,34.10
2022-12-08T06:30:37.053Z,34.60
2022-12-08T06:31:37.122Z,33.90
2022-12-08T06:32:37.043Z,32.80
2022-12-08T06:33:37.032Z,35.10
2022-12-08T06:34:37.051Z,33.90
2022-12-08T06:35:37.010Z,31.80
2022-12-08T06:36:37.002Z,31.10
2022-12-08T06:37:37.073Z,27.50
2022-12-08T06:38:40.528Z,23.40
2022-12-08T06:39:37.971Z,20.50
2022-12-08T06:40:37.042Z,18.80
2022-12-08T06:41:36.941Z,16.90
2022-12-08T06:42:36.941Z,19.00
2022-12-08T06:43:36.922Z,20.80
2022-12-08T06:44:36.920Z,19.90
2022-12-08T06:45:36.938Z,16.40
2022-12-08T06:46:36.960Z,22.20
2022-12-08T06:47:36.879Z,18.50
2022-12-08T06:48:45.021Z,20.10
2022-12-08T06:49:36.861Z,18.90
2022-12-08T06:50:36.850Z,23.20
2022-12-08T06:51:36.844Z,22.70
2022-12-08T06:52:45.624Z,23.00
2022-12-08T06:53:37.821Z,26.00
2022-12-08T06:54:36.840Z,22.80
2022-12-08T06:55:58.876Z,25.00
2022-12-08T06:56:37.788Z,25.60
2022-12-08T06:57:36.783Z,26.80
2022-12-08T06:58:36.803Z,25.20
2022-12-08T06:59:36.941Z,27.20
2022-12-08T07:00:49.116Z,26.80
2022-12-08T07:01:40.432Z,26.70
2022-12-08T07:02:42.851Z,28.80
2022-12-08T07:03:43.438Z,27.90
2022-12-08T07:04:38.116Z,27.60
2022-12-08T07:05:36.699Z,27.60
2022-12-08T07:06:36.689Z,26.00
2022-12-08T07:07:36.701Z,25.20
2022-12-08T07:08:36.695Z,24.70
2022-12-08T07:09:36.647Z,24.90
2022-12-08T07:10:37.549Z,24.40
2022-12-08T07:11:36.654Z,25.30
2022-12-08T07:12:36.637Z,25.40
2022-12-08T07:13:36.611Z,25.10
2022-12-08T07:14:36.650Z,25.00
2022-12-08T07:15:38.451Z,26.10
2022-12-08T07:16:36.654Z,23.60
2022-12-08T07:17:36.557Z,25.10
2022-12-08T07:18:36.587Z,26.30
2022-12-08T07:19:36.556Z,31.20
2022-12-08T07:20:36.559Z,27.90
2022-12-08T07:21:36.618Z,27.10
2022-12-08T07:22:36.504Z,28.80
2022-12-08T07:23:36.504Z,28.90
2022-12-08T07:24:36.506Z,31.30
2022-12-08T07:25:48.047Z,30.80
2022-12-08T07:26:36.476Z,33.90
2022-12-08T07:27:36.506Z,29.90
2022-12-08T07:28:36.452Z,31.20
2022-12-08T07:29:36.455Z,32.10
2022-12-08T07:30:36.479Z,30.80
2022-12-08T07:31:36.418Z,30.50
2022-12-08T07:32:36.424Z,27.70
2022-12-08T07:33:36.426Z,28.80
2022-12-08T07:34:36.396Z,28.90
2022-12-08T07:35:36.426Z,29.20
2022-12-08T07:36:36.376Z,26.40
2022-12-08T07:37:36.352Z,27.40
2022-12-08T07:38:36.345Z,27.80
2022-12-08T07:39:36.364Z,28.40
2022-12-08T07:40:36.326Z,26.10
2022-12-08T07:41:36.334Z,28.00
2022-12-08T07:42:36.319Z,23.70
2022-12-08T07:43:36.351Z,25.20
2022-12-08T07:44:36.419Z,25.40
2022-12-08T07:45:36.265Z,24.60
2022-12-08T07:46:36.352Z,23.60
2022-12-08T07:47:36.274Z,22.80
2022-12-08T07:48:36.244Z,28.10
2022-12-08T07:49:36.235Z,23.20
2022-12-08T07:50:37.921Z,19.80
2022-12-08T07:51:36.225Z,20.70
2022-12-08T07:52:36.224Z,21.90
2022-12-08T07:53:36.193Z,19.70
2022-12-08T07:54:36.204Z,20.50
2022-12-08T07:55:36.177Z,22.00
2022-12-08T07:56:36.291Z,20.20
2022-12-08T07:57:36.153Z,20.50
2022-12-08T07:58:36.172Z,21.10
2022-12-08T07:59:36.123Z,20.70
2022-12-08T08:00:36.224Z,22.70
2022-12-08T08:01:36.223Z,23.40
2022-12-08T08:02:36.229Z,22.10
2022-12-08T08:03:36.083Z,23.10
2022-12-08T08:04:36.121Z,22.80
2022-12-08T08:05:36.062Z,21.30
2022-12-08T08:06:36.109Z,22.70
2022-12-08T08:07:36.166Z,23.50
2022-12-08T08:08:36.039Z,22.40
2022-12-08T08:09:36.118Z,24.30
2022-12-08T08:10:36.011Z,25.40
2022-12-08T08:11:36.001Z,26.70
2022-12-08T08:12:36.002Z,19.30
2022-12-08T08:13:36.012Z,26.60
2022-12-08T08:14:35.992Z,27.00
2022-12-08T08:15:36.106Z,26.40
2022-12-08T08:16:38.629Z,29.70
2022-12-08T08:17:36.032Z,28.40
2022-12-08T08:18:35.934Z,29.70
2022-12-08T08:19:35.919Z,27.60
2022-12-08T08:20:38.960Z,28.30
2022-12-08T08:21:45.607Z,28.70
2022-12-08T08:22:36.887Z,33.30
2022-12-08T08:23:35.870Z,32.70
2022-12-08T08:24:40.251Z,33.40
2022-12-08T08:25:36.895Z,33.40
2022-12-08T08:26:35.855Z,35.00
2022-12-08T08:27:35.830Z,33.80
2022-12-08T08:28:35.820Z,33.90
2022-12-08T08:29:35.814Z,33.60
2022-12-08T08:30:40.747Z,33.70
2022-12-08T08:31:35.852Z,32.80
2022-12-08T08:32:35.785Z,22.30
2022-12-08T08:33:35.776Z,24.80
2022-12-08T08:34:35.889Z,27.20
2022-12-08T08:35:35.750Z,25.20
2022-12-08T08:36:35.926Z,28.10
2022-12-08T08:37:35.902Z,28.10
2022-12-08T08:38:35.742Z,26.40
2022-12-08T08:39:36.669Z,26.60
2022-12-08T08:40:35.697Z,24.50
2022-12-08T08:41:35.679Z,26.20
2022-12-08T08:42:35.678Z,24.60
2022-12-08T08:43:38.330Z,23.00
2022-12-08T08:44:35.657Z,26.60
2022-12-08T08:45:35.640Z,22.40
2022-12-08T08:46:35.714Z,23.80
2022-12-08T08:47:35.619Z,25.30
2022-12-08T08:48:35.617Z,23.80
2022-12-08T08:49:35.637Z,24.10
2022-12-08T08:50:37.776Z,20.00
2022-12-08T08:51:35.576Z,22.70
2022-12-08T08:52:35.565Z,22.60
2022-12-08T08:53:35.556Z,24.50
2022-12-08T08:54:35.556Z,22.90
2022-12-08T08:55:35.683Z,25.90
2022-12-08T08:56:35.562Z,23.40
2022-12-08T08:57:35.518Z,25.50
2022-12-08T08:58:35.513Z,26.60
2022-12-08T08:59:35.496Z,25.50
2022-12-08T09:00:35.514Z,27.40
2022-12-08T09:01:35.586Z,24.30
2022-12-08T09:02:35.469Z,25.40
2022-12-08T09:03:35.467Z,24.90
2022-12-08T09:04:35.498Z,28.30
2022-12-08T09:05:35.495Z,25.10
2022-12-08T09:06:35.510Z,27.00
2022-12-08T09:07:35.436Z,25.50
2022-12-08T09:08:35.545Z,28.70
2022-12-08T09:09:35.395Z,27.20
2022-12-08T09:10:35.394Z,28.50
2022-12-08T09:11:35.371Z,27.40
2022-12-08T09:12:35.385Z,27.70
2022-12-08T09:13:35.371Z,28.20
2022-12-08T09:14:35.464Z,28.80
2022-12-08T09:15:35.442Z,29.50
2022-12-08T09:16:41.801Z,31.40
2022-12-08T09:17:36.338Z,34.00
2022-12-08T09:18:35.302Z,31.40
2022-12-08T09:19:35.329Z,32.90
2022-12-08T09:20:35.274Z,34.20
2022-12-08T09:21:35.354Z,35.00
2022-12-08T09:22:35.253Z,33.30
2022-12-08T09:23:35.891Z,32.40
2022-12-08T09:24:35.285Z,32.60
2022-12-08T09:25:35.223Z,31.60
2022-12-08T09:26:35.425Z,32.50
2022-12-08T09:27:35.193Z,29.20
2022-12-08T09:28:35.224Z,27.10
2022-12-08T09:29:36.354Z,25.60
2022-12-08T09:30:35.244Z,28.00
2022-12-08T09:31:35.200Z,25.90
2022-12-08T09:32:35.161Z,24.10
2022-12-08T09:33:35.134Z,27.60
2022-12-08T09:34:35.141Z,26.40
2022-12-08T09:35:35.218Z,24.90
2022-12-08T09:36:35.227Z,24.40
2022-12-08T09:37:35.101Z,23.10
2022-12-08T09:38:35.173Z,21.50
2022-12-08T09:39:35.074Z,17.90
2022-12-08T09:40:35.075Z,17.50
2022-12-08T09:41:40.300Z,19.90
2022-12-08T09:42:36.053Z,20.00
2022-12-08T09:43:35.048Z,18.30
2022-12-08T09:44:35.030Z,19.10
2022-12-08T09:45:35.011Z,19.50
2022-12-08T09:46:35.039Z,20.60
2022-12-08T09:47:36.290Z,21.70
2022-12-08T09:48:34.982Z,18.70
2022-12-08T09:49:34.969Z,18.30
2022-12-08T09:50:34.968Z,18.70
2022-12-08T09:51:34.980Z,19.30
2022-12-08T09:52:34.989Z,19.80
2022-12-08T09:53:35.850Z,21.00
2022-12-08T09:54:34.920Z,21.40
2022-12-08T09:55:34.929Z,22.60
2022-12-08T09:56:34.961Z,20.80
2022-12-08T09:57:34.888Z,21.70
2022-12-08T09:58:34.949Z,22.00
2022-12-08T09:59:34.868Z,16.70
2022-12-08T10:00:34.865Z,18.80
2022-12-08T10:01:34.897Z,16.60
2022-12-08T10:02:34.837Z,14.60
2022-12-08T10:03:34.831Z,16.10
2022-12-08T10:04:34.988Z,16.60
2022-12-08T10:05:34.924Z,16.80
2022-12-08T10:06:34.808Z,15.80
2022-12-08T10:07:34.787Z,18.50
2022-12-08T10:08:34.861Z,16.40
2022-12-08T10:09:34.789Z,17.80
2022-12-08T10:10:34.765Z,18.30
2022-12-08T10:11:34.836Z,17.80
2022-12-08T10:12:34.736Z,18.70
2022-12-08T10:13:34.849Z,18.90
2022-12-08T10:14:34.739Z,19.80
2022-12-08T10:15:34.709Z,21.30
2022-12-08T10:16:34.735Z,22.60
2022-12-08T10:17:34.678Z,20.30
2022-12-08T10:18:34.669Z,21.10
2022-12-08T10:19:34.802Z,20.90
2022-12-08T10:20:34.658Z,22.20
2022-12-08T10:21:34.634Z,25.90
2022-12-08T10:22:37.621Z,23.80
2022-12-08T10:23:35.632Z,25.60
2022-12-08T10:24:34.652Z,24.80
2022-12-08T10:25:34.596Z,26.30
2022-12-08T10:26:34.608Z,25.10
2022-12-08T10:27:34.595Z,27.40
2022-12-08T10:28:36.705Z,26.90
2022-12-08T10:29:34.559Z,28.10
2022-12-08T10:30:34.546Z,26.50
2022-12-08T10:31:34.659Z,29.10
2022-12-08T10:32:34.594Z,25.40
2022-12-08T10:33:34.513Z,28.20
2022-12-08T10:34:34.513Z,27.60
2022-12-08T10:35:34.496Z,27.70
2022-12-08T10:36:34.561Z,25.80
2022-12-08T10:37:34.470Z,27.40
2022-12-08T10:38:34.531Z,28.80
2022-12-08T10:39:34.460Z,26.50
2022-12-08T10:40:34.929Z,28.40
2022-12-08T10:41:34.454Z,29.10
2022-12-08T10:42:34.442Z,28.30
2022-12-08T10:43:34.485Z,32.70
2022-12-08T10:44:34.421Z,41.40
2022-12-08T10:45:34.404Z,27.70
2022-12-08T10:46:34.414Z,32.30
2022-12-08T10:47:34.393Z,27.80
2022-12-08T10:48:34.351Z,26.20
2022-12-08T10:49:34.345Z,27.40
2022-12-08T10:50:34.332Z,27.00
2022-12-08T10:51:34.351Z,23.30
2022-12-08T10:52:34.398Z,20.20
2022-12-08T10:53:34.333Z,21.70
2022-12-08T10:54:34.282Z,19.80
2022-12-08T10:55:34.283Z,19.00
2022-12-08T10:56:34.279Z,18.30
2022-12-08T10:57:34.261Z,20.50
2022-12-08T10:58:34.280Z,20.50
2022-12-08T10:59:34.250Z,20.90
2022-12-08T11:00:34.538Z,22.80
2022-12-08T11:01:34.359Z,20.40
2022-12-08T11:02:34.250Z,21.60
2022-12-08T11:03:34.240Z,20.40
2022-12-08T11:04:34.245Z,21.20
2022-12-08T11:05:34.170Z,21.10
2022-12-08T11:06:34.168Z,19.00
2022-12-08T11:07:34.174Z,19.00
2022-12-08T11:08:34.218Z,18.60
2022-12-08T11:09:34.133Z,19.60
2022-12-08T11:10:34.198Z,18.60
2022-12-08T11:11:34.129Z,19.10
2022-12-08T11:12:34.108Z,18.80
2022-12-08T11:13:34.110Z,18.40
2022-12-08T11:14:34.077Z,19.20
2022-12-08T11:15:35.580Z,21.20
2022-12-08T11:16:34.104Z,19.60
2022-12-08T11:17:34.115Z,20.70
2022-12-08T11:18:34.028Z,22.10
2022-12-08T11:19:34.049Z,20.30
2022-12-08T11:20:34.008Z,21.20
2022-12-08T11:21:34.027Z,23.30
2022-12-08T11:22:33.998Z,24.10
2022-12-08T11:23:34.035Z,23.50
2022-12-08T11:24:37.460Z,22.40
2022-12-08T11:25:33.985Z,23.30
2022-12-08T11:26:33.957Z,24.50
2022-12-08T11:27:33.957Z,25.60
2022-12-08T11:28:33.926Z,26.60
2022-12-08T11:29:33.957Z,24.20
2022-12-08T11:30:33.947Z,27.70
2022-12-08T11:31:33.938Z,25.60
2022-12-08T11:32:33.885Z,22.10
2022-12-08T11:33:33.901Z,20.30
2022-12-08T11:34:36.581Z,19.90
2022-12-08T11:35:33.865Z,21.20
2022-12-08T11:36:33.907Z,21.70
2022-12-08T11:37:35.252Z,24.60
2022-12-08T11:38:33.823Z,24.20
2022-12-08T11:39:33.815Z,20.60
2022-12-08T11:40:33.955Z,21.20
2022-12-08T11:41:33.798Z,22.10
2022-12-08T11:42:33.787Z,23.30
2022-12-08T11:43:33.783Z,24.30
2022-12-08T11:44:33.804Z,22.80
2022-12-08T11:45:33.784Z,20.90
2022-12-08T11:46:33.854Z,20.70
2022-12-08T11:47:33.731Z,22.40
2022-12-08T11:48:33.713Z,23.60
2022-12-08T11:49:33.709Z,25.40
2022-12-08T11:50:33.725Z,24.10
2022-12-08T11:51:33.703Z,25.10
2022-12-08T11:52:33.693Z,26.50
2022-12-08T11:53:33.730Z,23.40
2022-12-08T11:54:33.653Z,18.70
2022-12-08T11:55:37.172Z,18.00
2022-12-08T11:56:34.657Z,18.40
2022-12-08T11:57:33.701Z,19.30
2022-12-08T11:58:33.691Z,19.60
2022-12-08T11:59:33.620Z,17.70
2022-12-08T12:00:33.602Z,17.70
2022-12-08T12:01:36.731Z,15.90
2022-12-08T12:02:34.658Z,18.10
2022-12-08T12:03:33.678Z,18.70
2022-12-08T12:04:33.594Z,19.50
2022-12-08T12:06:05.255Z,20.20
2022-12-08T12:07:34.550Z,22.80
2022-12-08T12:08:33.501Z,21.60
2022-12-08T12:09:33.515Z,17.30
2022-12-08T12:10:33.541Z,17.00
2022-12-08T12:11:33.484Z,16.90
2022-12-08T12:12:39.308Z,16.80
2022-12-08T12:13:34.470Z,13.90
2022-12-08T12:14:33.444Z,13.20
2022-12-08T12:15:33.451Z,12.60
2022-12-08T12:16:33.506Z,12.80
2022-12-08T12:17:33.423Z,15.70
2022-12-08T12:18:33.453Z,16.70
2022-12-08T12:19:33.406Z,14.40
2022-12-08T12:20:33.389Z,16.90
2022-12-08T12:21:33.383Z,14.90
2022-12-08T12:22:33.368Z,15.60
2022-12-08T12:23:33.359Z,17.60
2022-12-08T12:24:36.064Z,17.60
2022-12-08T12:25:33.374Z,16.80
2022-12-08T12:26:33.318Z,18.20
2022-12-08T12:27:33.350Z,20.40
2022-12-08T12:28:33.347Z,19.00
2022-12-08T12:29:33.301Z,18.40
2022-12-08T12:30:33.316Z,19.50
2022-12-08T12:31:33.268Z,22.40
2022-12-08T12:32:33.258Z,23.10
2022-12-08T12:33:33.248Z,24.40
2022-12-08T12:34:33.271Z,25.90
2022-12-08T12:35:33.493Z,30.30
2022-12-08T12:36:33.218Z,27.50
2022-12-08T12:37:33.238Z,27.30
2022-12-08T12:38:33.189Z,28.80
2022-12-08T12:39:33.188Z,29.20
2022-12-08T12:40:33.169Z,30.20
2022-12-08T12:41:33.209Z,32.30
2022-12-08T12:42:33.147Z,30.70
2022-12-08T12:43:33.137Z,30.40
2022-12-08T12:44:33.178Z,30.10
2022-12-08T12:45:33.158Z,31.20
2022-12-08T12:46:33.165Z,30.20
2022-12-08T12:47:33.107Z,33.10
2022-12-08T12:48:33.086Z,33.30
2022-12-08T12:49:33.164Z,32.10
2022-12-08T12:50:33.113Z,32.20
2022-12-08T12:51:33.061Z,37.20
2022-12-08T12:52:33.051Z,32.50
2022-12-08T12:53:33.076Z,31.90